North Lebanon, Pennsylvania
Current Conditions -  °F | °C
As of 12:32 PM on Thursday 18 Dec 2014 (Local Time) from KMUI Reporting Station
Overcast Overcast  
Wind Chill: 25°   Ceiling: 3000
Heat Index: 34°   Visibility: 10mi
Dew Point: 23°   Wind: 12mph
Humidity: 65%   Direction: 270°W
Pressure: 30.06"   Gusts: NA
Location:  40.2957°N, 76.4189°W
Report Text: KMUI 181732Z AUTO 27010KT 10SM OVC030 01/M05 A3006 RMK AO2
Loading
Personal Weather Stations






























Interactive Weather Map New forecast layout! Learn more

10-Day Weather Forecast

Advertisements
Track Severe Weather on mobile